sensor_id;sensor_type;location;lat;lon;timestamp;P1;durP1;ratioP1;P2;durP2;ratioP2
60718;SDS011;46567;51.660;5.824;2023-04-24T00:00:47;3.8;;;3.5;;
60718;SDS011;46567;51.660;5.824;2023-04-24T00:05:47;4.0;;;3.5;;
60718;SDS011;46567;51.660;5.824;2023-04-24T00:10:47;3.6;;;3.3;;
60718;SDS011;46567;51.660;5.824;2023-04-24T00:15:47;6.1;;;4.2;;
60718;SDS011;46567;51.660;5.824;2023-04-24T00:20:47;6.2;;;4.9;;
60718;SDS011;46567;51.660;5.824;2023-04-24T00:25:47;6.6;;;5.1;;
60718;SDS011;46567;51.660;5.824;2023-04-24T00:30:47;7.1;;;5.5;;
60718;SDS011;46567;51.660;5.824;2023-04-24T00:35:47;7.3;;;5.9;;
60718;SDS011;46567;51.660;5.824;2023-04-24T00:40:47;10.9;;;6.8;;
60718;SDS011;46567;51.660;5.824;2023-04-24T00:45:47;12.9;;;7.1;;
60718;SDS011;46567;51.660;5.824;2023-04-24T00:50:47;10.6;;;7.2;;
60718;SDS011;46567;51.660;5.824;2023-04-24T00:55:47;9.1;;;7.9;;
60718;SDS011;46567;51.660;5.824;2023-04-24T01:00:47;12.5;;;8.4;;
60718;SDS011;46567;51.660;5.824;2023-04-24T01:05:48;12.7;;;9.3;;
60718;SDS011;46567;51.660;5.824;2023-04-24T01:10:48;12.1;;;9.2;;
60718;SDS011;46567;51.660;5.824;2023-04-24T01:15:48;15.9;;;9.5;;
60718;SDS011;46567;51.660;5.824;2023-04-24T01:20:47;16.4;;;10.0;;
60718;SDS011;46567;51.660;5.824;2023-04-24T01:25:48;16.3;;;10.0;;
60718;SDS011;46567;51.660;5.824;2023-04-24T01:30:47;14.1;;;9.2;;
60718;SDS011;46567;51.660;5.824;2023-04-24T01:35:47;14.5;;;10.0;;
60718;SDS011;46567;51.660;5.824;2023-04-24T01:40:47;12.5;;;9.7;;
60718;SDS011;46567;51.660;5.824;2023-04-24T01:45:47;15.8;;;10.6;;
60718;SDS011;46567;51.660;5.824;2023-04-24T01:50:47;15.7;;;10.5;;
60718;SDS011;46567;51.660;5.824;2023-04-24T01:55:47;16.5;;;10.3;;
60718;SDS011;46567;51.660;5.824;2023-04-24T02:00:47;16.8;;;11.1;;
60718;SDS011;46567;51.660;5.824;2023-04-24T02:05:47;15.3;;;10.7;;
60718;SDS011;46567;51.660;5.824;2023-04-24T02:10:47;17.6;;;11.5;;
60718;SDS011;46567;51.660;5.824;2023-04-24T02:15:47;20.7;;;12.7;;
60718;SDS011;46567;51.660;5.824;2023-04-24T02:20:47;18.3;;;13.2;;
60718;SDS011;46567;51.660;5.824;2023-04-24T02:25:47;21.6;;;13.9;;
60718;SDS011;46567;51.660;5.824;2023-04-24T02:30:47;19.6;;;13.4;;
60718;SDS011;46567;51.660;5.824;2023-04-24T02:35:47;19.8;;;14.7;;
60718;SDS011;46567;51.660;5.824;2023-04-24T02:40:47;23.0;;;13.6;;
60718;SDS011;46567;51.660;5.824;2023-04-24T02:45:47;19.8;;;14.3;;
60718;SDS011;46567;51.660;5.824;2023-04-24T02:50:47;20.8;;;14.4;;
60718;SDS011;46567;51.660;5.824;2023-04-24T02:55:47;21.2;;;15.0;;
60718;SDS011;46567;51.660;5.824;2023-04-24T03:00:47;21.6;;;13.7;;
60718;SDS011;46567;51.660;5.824;2023-04-24T03:05:47;20.1;;;14.1;;
60718;SDS011;46567;51.660;5.824;2023-04-24T03:10:47;20.5;;;14.1;;
60718;SDS011;46567;51.660;5.824;2023-04-24T03:15:47;20.7;;;15.0;;
60718;SDS011;46567;51.660;5.824;2023-04-24T03:25:47;18.3;;;13.5;;
60718;SDS011;46567;51.660;5.824;2023-04-24T03:30:47;16.9;;;13.0;;
60718;SDS011;46567;51.660;5.824;2023-04-24T03:40:47;21.1;;;13.3;;
60718;SDS011;46567;51.660;5.824;2023-04-24T03:45:47;20.1;;;13.7;;
60718;SDS011;46567;51.660;5.824;2023-04-24T03:50:47;17.5;;;13.0;;
60718;SDS011;46567;51.660;5.824;2023-04-24T03:55:47;21.3;;;13.2;;
60718;SDS011;46567;51.660;5.824;2023-04-24T04:00:47;18.5;;;12.9;;
60718;SDS011;46567;51.660;5.824;2023-04-24T04:05:47;18.8;;;12.8;;
60718;SDS011;46567;51.660;5.824;2023-04-24T04:10:47;17.0;;;12.1;;
60718;SDS011;46567;51.660;5.824;2023-04-24T04:15:47;18.9;;;11.9;;
60718;SDS011;46567;51.660;5.824;2023-04-24T04:20:47;17.6;;;11.0;;
60718;SDS011;46567;51.660;5.824;2023-04-24T04:25:47;17.0;;;10.8;;
60718;SDS011;46567;51.660;5.824;2023-04-24T04:30:47;18.6;;;10.3;;
60718;SDS011;46567;51.660;5.824;2023-04-24T04:35:47;15.4;;;10.5;;
60718;SDS011;46567;51.660;5.824;2023-04-24T04:40:47;13.1;;;9.7;;
60718;SDS011;46567;51.660;5.824;2023-04-24T04:45:47;15.3;;;9.7;;
60718;SDS011;46567;51.660;5.824;2023-04-24T04:50:47;14.6;;;10.2;;
60718;SDS011;46567;51.660;5.824;2023-04-24T04:55:47;16.8;;;9.8;;
60718;SDS011;46567;51.660;5.824;2023-04-24T05:00:47;11.8;;;9.1;;
60718;SDS011;46567;51.660;5.824;2023-04-24T05:05:47;12.1;;;9.2;;
60718;SDS011;46567;51.660;5.824;2023-04-24T05:15:47;11.1;;;8.3;;
60718;SDS011;46567;51.660;5.824;2023-04-24T05:20:47;10.5;;;7.6;;
60718;SDS011;46567;51.660;5.824;2023-04-24T05:25:48;9.5;;;7.7;;
60718;SDS011;46567;51.660;5.824;2023-04-24T05:30:47;9.8;;;7.4;;
60718;SDS011;46567;51.660;5.824;2023-04-24T05:35:47;8.2;;;6.7;;
60718;SDS011;46567;51.660;5.824;2023-04-24T05:40:48;7.8;;;6.4;;
60718;SDS011;46567;51.660;5.824;2023-04-24T05:45:47;8.5;;;6.3;;
60718;SDS011;46567;51.660;5.824;2023-04-24T05:50:48;8.0;;;6.2;;
60718;SDS011;46567;51.660;5.824;2023-04-24T05:55:48;7.1;;;6.1;;
60718;SDS011;46567;51.660;5.824;2023-04-24T06:00:48;7.9;;;6.4;;
60718;SDS011;46567;51.660;5.824;2023-04-24T06:10:48;7.5;;;6.3;;
60718;SDS011;46567;51.660;5.824;2023-04-24T06:15:47;8.5;;;6.1;;
60718;SDS011;46567;51.660;5.824;2023-04-24T06:20:47;7.2;;;5.3;;
60718;SDS011;46567;51.660;5.824;2023-04-24T06:30:48;5.0;;;4.0;;
60718;SDS011;46567;51.660;5.824;2023-04-24T06:35:47;4.2;;;3.0;;
60718;SDS011;46567;51.660;5.824;2023-04-24T06:40:47;2.3;;;1.8;;
60718;SDS011;46567;51.660;5.824;2023-04-24T06:45:48;3.6;;;1.9;;
60718;SDS011;46567;51.660;5.824;2023-04-24T06:50:47;2.1;;;1.8;;
60718;SDS011;46567;51.660;5.824;2023-04-24T06:55:48;2.0;;;1.6;;
60718;SDS011;46567;51.660;5.824;2023-04-24T07:01:01;1.5;;;1.1;;
60718;SDS011;46567;51.660;5.824;2023-04-24T07:05:48;2.1;;;0.9;;
60718;SDS011;46567;51.660;5.824;2023-04-24T07:10:48;1.5;;;1.0;;
60718;SDS011;46567;51.660;5.824;2023-04-24T07:15:47;0.9;;;0.7;;
60718;SDS011;46567;51.660;5.824;2023-04-24T07:20:47;1.8;;;0.8;;
60718;SDS011;46567;51.660;5.824;2023-04-24T07:30:48;1.4;;;1.2;;
60718;SDS011;46567;51.660;5.824;2023-04-24T07:35:48;2.6;;;1.9;;
60718;SDS011;46567;51.660;5.824;2023-04-24T07:40:47;5.2;;;3.4;;
60718;SDS011;46567;51.660;5.824;2023-04-24T07:45:48;7.6;;;5.4;;
60718;SDS011;46567;51.660;5.824;2023-04-24T07:50:47;8.2;;;5.9;;
60718;SDS011;46567;51.660;5.824;2023-04-24T07:55:47;8.7;;;6.1;;
60718;SDS011;46567;51.660;5.824;2023-04-24T08:00:48;12.1;;;7.0;;
60718;SDS011;46567;51.660;5.824;2023-04-24T08:05:47;10.8;;;7.1;;
60718;SDS011;46567;51.660;5.824;2023-04-24T08:10:48;9.3;;;6.5;;
60718;SDS011;46567;51.660;5.824;2023-04-24T08:15:48;10.2;;;7.0;;
60718;SDS011;46567;51.660;5.824;2023-04-24T08:20:47;9.2;;;5.8;;
60718;SDS011;46567;51.660;5.824;2023-04-24T08:25:48;10.4;;;6.5;;
60718;SDS011;46567;51.660;5.824;2023-04-24T08:30:47;12.6;;;6.3;;
60718;SDS011;46567;51.660;5.824;2023-04-24T08:35:48;14.0;;;6.3;;
60718;SDS011;46567;51.660;5.824;2023-04-24T08:40:47;12.4;;;6.2;;
60718;SDS011;46567;51.660;5.824;2023-04-24T08:45:48;13.9;;;6.1;;
60718;SDS011;46567;51.660;5.824;2023-04-24T08:50:48;9.7;;;4.6;;
60718;SDS011;46567;51.660;5.824;2023-04-24T08:55:48;13.5;;;4.1;;
60718;SDS011;46567;51.660;5.824;2023-04-24T09:00:47;7.0;;;3.3;;
60718;SDS011;46567;51.660;5.824;2023-04-24T09:05:48;8.8;;;3.4;;
60718;SDS011;46567;51.660;5.824;2023-04-24T09:10:47;10.9;;;3.1;;
60718;SDS011;46567;51.660;5.824;2023-04-24T09:15:47;14.5;;;3.3;;
60718;SDS011;46567;51.660;5.824;2023-04-24T09:20:58;12.1;;;3.9;;
60718;SDS011;46567;51.660;5.824;2023-04-24T09:25:48;13.2;;;3.3;;
60718;SDS011;46567;51.660;5.824;2023-04-24T09:30:48;9.6;;;2.8;;
60718;SDS011;46567;51.660;5.824;2023-04-24T09:35:49;16.6;;;4.1;;
60718;SDS011;46567;51.660;5.824;2023-04-24T09:40:48;15.8;;;4.1;;
60718;SDS011;46567;51.660;5.824;2023-04-24T09:45:48;9.8;;;2.9;;
60718;SDS011;46567;51.660;5.824;2023-04-24T09:50:48;14.6;;;3.1;;
60718;SDS011;46567;51.660;5.824;2023-04-24T09:55:48;6.7;;;3.1;;
60718;SDS011;46567;51.660;5.824;2023-04-24T10:00:47;6.9;;;2.9;;
60718;SDS011;46567;51.660;5.824;2023-04-24T10:05:48;7.5;;;2.5;;
60718;SDS011;46567;51.660;5.824;2023-04-24T10:10:48;8.4;;;2.8;;
60718;SDS011;46567;51.660;5.824;2023-04-24T10:15:48;10.0;;;2.5;;
60718;SDS011;46567;51.660;5.824;2023-04-24T10:20:48;7.3;;;2.1;;
60718;SDS011;46567;51.660;5.824;2023-04-24T10:25:48;5.9;;;2.1;;
60718;SDS011;46567;51.660;5.824;2023-04-24T10:30:48;6.8;;;2.4;;
60718;SDS011;46567;51.660;5.824;2023-04-24T10:35:50;6.9;;;2.5;;
60718;SDS011;46567;51.660;5.824;2023-04-24T10:40:48;6.0;;;2.4;;
60718;SDS011;46567;51.660;5.824;2023-04-24T10:46:01;9.6;;;2.3;;
60718;SDS011;46567;51.660;5.824;2023-04-24T10:50:50;10.4;;;2.5;;
60718;SDS011;46567;51.660;5.824;2023-04-24T10:55:50;5.9;;;2.1;;
60718;SDS011;46567;51.660;5.824;2023-04-24T11:00:55;5.4;;;1.5;;
60718;SDS011;46567;51.660;5.824;2023-04-24T11:05:54;4.9;;;1.7;;
60718;SDS011;46567;51.660;5.824;2023-04-24T11:10:54;5.9;;;1.4;;
60718;SDS011;46567;51.660;5.824;2023-04-24T11:16:12;5.4;;;1.9;;
60718;SDS011;46567;51.660;5.824;2023-04-24T11:20:48;6.2;;;2.0;;
60718;SDS011;46567;51.660;5.824;2023-04-24T11:25:52;8.3;;;1.2;;
60718;SDS011;46567;51.660;5.824;2023-04-24T11:30:48;4.7;;;1.5;;
60718;SDS011;46567;51.660;5.824;2023-04-24T11:35:48;4.1;;;1.3;;
60718;SDS011;46567;51.660;5.824;2023-04-24T11:40:48;3.0;;;0.9;;
60718;SDS011;46567;51.660;5.824;2023-04-24T11:45:49;3.5;;;1.4;;
60718;SDS011;46567;51.660;5.824;2023-04-24T11:50:48;3.9;;;1.2;;
60718;SDS011;46567;51.660;5.824;2023-04-24T11:55:48;4.3;;;1.2;;
60718;SDS011;46567;51.660;5.824;2023-04-24T12:00:55;2.5;;;1.1;;
60718;SDS011;46567;51.660;5.824;2023-04-24T12:05:48;2.8;;;1.2;;
60718;SDS011;46567;51.660;5.824;2023-04-24T12:10:48;3.2;;;1.0;;
60718;SDS011;46567;51.660;5.824;2023-04-24T12:15:48;4.9;;;1.3;;
60718;SDS011;46567;51.660;5.824;2023-04-24T12:20:48;3.6;;;1.7;;
60718;SDS011;46567;51.660;5.824;2023-04-24T12:25:48;5.6;;;1.7;;
60718;SDS011;46567;51.660;5.824;2023-04-24T12:30:48;6.0;;;1.6;;
60718;SDS011;46567;51.660;5.824;2023-04-24T12:35:48;3.0;;;1.4;;
60718;SDS011;46567;51.660;5.824;2023-04-24T12:40:48;3.7;;;1.8;;
60718;SDS011;46567;51.660;5.824;2023-04-24T12:45:48;4.7;;;1.5;;
60718;SDS011;46567;51.660;5.824;2023-04-24T12:50:48;3.9;;;1.4;;
60718;SDS011;46567;51.660;5.824;2023-04-24T12:55:48;8.5;;;1.5;;
60718;SDS011;46567;51.660;5.824;2023-04-24T13:00:48;6.3;;;1.5;;
60718;SDS011;46567;51.660;5.824;2023-04-24T13:05:48;3.1;;;1.6;;
60718;SDS011;46567;51.660;5.824;2023-04-24T13:10:48;2.2;;;1.5;;
60718;SDS011;46567;51.660;5.824;2023-04-24T13:15:48;2.0;;;1.5;;
60718;SDS011;46567;51.660;5.824;2023-04-24T13:20:48;4.1;;;1.6;;
60718;SDS011;46567;51.660;5.824;2023-04-24T13:25:48;4.2;;;1.5;;
60718;SDS011;46567;51.660;5.824;2023-04-24T13:30:48;2.6;;;0.9;;
60718;SDS011;46567;51.660;5.824;2023-04-24T13:35:48;2.5;;;1.2;;
60718;SDS011;46567;51.660;5.824;2023-04-24T13:40:48;6.6;;;1.7;;
60718;SDS011;46567;51.660;5.824;2023-04-24T13:45:48;4.6;;;1.5;;
60718;SDS011;46567;51.660;5.824;2023-04-24T13:50:48;4.1;;;1.5;;
60718;SDS011;46567;51.660;5.824;2023-04-24T13:55:48;2.5;;;1.4;;
60718;SDS011;46567;51.660;5.824;2023-04-24T14:00:48;4.6;;;1.9;;
60718;SDS011;46567;51.660;5.824;2023-04-24T14:05:48;5.3;;;1.7;;
60718;SDS011;46567;51.660;5.824;2023-04-24T14:10:48;3.7;;;1.6;;
60718;SDS011;46567;51.660;5.824;2023-04-24T14:15:48;1.8;;;1.3;;
60718;SDS011;46567;51.660;5.824;2023-04-24T14:20:48;3.2;;;1.4;;
60718;SDS011;46567;51.660;5.824;2023-04-24T14:25:48;2.3;;;1.2;;
60718;SDS011;46567;51.660;5.824;2023-04-24T14:30:48;2.9;;;1.4;;
60718;SDS011;46567;51.660;5.824;2023-04-24T14:35:48;2.1;;;1.4;;
60718;SDS011;46567;51.660;5.824;2023-04-24T14:40:48;4.5;;;1.6;;
60718;SDS011;46567;51.660;5.824;2023-04-24T14:45:48;4.7;;;2.0;;
60718;SDS011;46567;51.660;5.824;2023-04-24T14:50:48;5.7;;;2.2;;
60718;SDS011;46567;51.660;5.824;2023-04-24T14:55:48;3.7;;;2.1;;
60718;SDS011;46567;51.660;5.824;2023-04-24T15:00:48;5.8;;;2.2;;
60718;SDS011;46567;51.660;5.824;2023-04-24T15:05:48;4.1;;;2.0;;
60718;SDS011;46567;51.660;5.824;2023-04-24T15:10:48;6.2;;;1.8;;
60718;SDS011;46567;51.660;5.824;2023-04-24T15:15:48;6.3;;;2.4;;
60718;SDS011;46567;51.660;5.824;2023-04-24T15:20:48;5.5;;;3.2;;
60718;SDS011;46567;51.660;5.824;2023-04-24T15:25:48;5.1;;;1.6;;
60718;SDS011;46567;51.660;5.824;2023-04-24T15:30:48;4.1;;;1.8;;
60718;SDS011;46567;51.660;5.824;2023-04-24T15:35:48;3.1;;;1.8;;
60718;SDS011;46567;51.660;5.824;2023-04-24T15:40:48;4.2;;;2.1;;
60718;SDS011;46567;51.660;5.824;2023-04-24T15:45:48;12.4;;;2.4;;
60718;SDS011;46567;51.660;5.824;2023-04-24T15:55:48;6.6;;;2.4;;
60718;SDS011;46567;51.660;5.824;2023-04-24T16:00:48;9.0;;;2.7;;
60718;SDS011;46567;51.660;5.824;2023-04-24T16:05:48;7.7;;;3.1;;
60718;SDS011;46567;51.660;5.824;2023-04-24T16:10:48;8.9;;;3.2;;
60718;SDS011;46567;51.660;5.824;2023-04-24T16:15:48;7.0;;;2.9;;
60718;SDS011;46567;51.660;5.824;2023-04-24T16:20:48;5.5;;;2.7;;
60718;SDS011;46567;51.660;5.824;2023-04-24T16:25:48;8.0;;;2.9;;
60718;SDS011;46567;51.660;5.824;2023-04-24T16:30:48;7.2;;;2.7;;
60718;SDS011;46567;51.660;5.824;2023-04-24T16:35:48;7.2;;;3.0;;
60718;SDS011;46567;51.660;5.824;2023-04-24T16:40:48;8.3;;;2.9;;
60718;SDS011;46567;51.660;5.824;2023-04-24T16:45:48;8.0;;;3.3;;
60718;SDS011;46567;51.660;5.824;2023-04-24T16:50:48;8.5;;;2.9;;
60718;SDS011;46567;51.660;5.824;2023-04-24T16:55:48;8.2;;;2.6;;
60718;SDS011;46567;51.660;5.824;2023-04-24T17:00:48;8.4;;;2.9;;
60718;SDS011;46567;51.660;5.824;2023-04-24T17:05:48;9.9;;;2.9;;
60718;SDS011;46567;51.660;5.824;2023-04-24T17:10:48;10.0;;;3.2;;
60718;SDS011;46567;51.660;5.824;2023-04-24T17:15:48;9.1;;;3.1;;
60718;SDS011;46567;51.660;5.824;2023-04-24T17:20:48;10.0;;;3.0;;
60718;SDS011;46567;51.660;5.824;2023-04-24T17:25:48;10.5;;;3.5;;
60718;SDS011;46567;51.660;5.824;2023-04-24T17:30:48;10.5;;;3.8;;
60718;SDS011;46567;51.660;5.824;2023-04-24T17:35:48;10.8;;;3.1;;
60718;SDS011;46567;51.660;5.824;2023-04-24T17:40:48;7.7;;;3.0;;
60718;SDS011;46567;51.660;5.824;2023-04-24T17:45:49;9.4;;;3.1;;
60718;SDS011;46567;51.660;5.824;2023-04-24T17:50:48;7.0;;;3.2;;
60718;SDS011;46567;51.660;5.824;2023-04-24T17:55:48;14.4;;;3.6;;
60718;SDS011;46567;51.660;5.824;2023-04-24T18:00:48;9.9;;;3.5;;
60718;SDS011;46567;51.660;5.824;2023-04-24T18:05:48;8.6;;;3.1;;
60718;SDS011;46567;51.660;5.824;2023-04-24T18:10:48;11.7;;;3.4;;
60718;SDS011;46567;51.660;5.824;2023-04-24T18:15:48;10.0;;;3.5;;
60718;SDS011;46567;51.660;5.824;2023-04-24T18:20:48;12.2;;;3.6;;
60718;SDS011;46567;51.660;5.824;2023-04-24T18:25:48;13.4;;;4.5;;
60718;SDS011;46567;51.660;5.824;2023-04-24T18:30:48;8.3;;;3.2;;
60718;SDS011;46567;51.660;5.824;2023-04-24T18:35:48;13.4;;;4.1;;
60718;SDS011;46567;51.660;5.824;2023-04-24T18:40:48;9.5;;;3.7;;
60718;SDS011;46567;51.660;5.824;2023-04-24T18:45:48;11.9;;;3.6;;
60718;SDS011;46567;51.660;5.824;2023-04-24T18:50:48;7.9;;;3.5;;
60718;SDS011;46567;51.660;5.824;2023-04-24T18:55:48;10.9;;;3.6;;
60718;SDS011;46567;51.660;5.824;2023-04-24T19:00:48;10.9;;;3.4;;
60718;SDS011;46567;51.660;5.824;2023-04-24T19:05:48;8.5;;;3.6;;
60718;SDS011;46567;51.660;5.824;2023-04-24T19:10:48;7.7;;;3.1;;
60718;SDS011;46567;51.660;5.824;2023-04-24T19:15:48;10.0;;;3.2;;
60718;SDS011;46567;51.660;5.824;2023-04-24T19:20:48;16.7;;;3.7;;
60718;SDS011;46567;51.660;5.824;2023-04-24T19:25:48;12.8;;;3.8;;
60718;SDS011;46567;51.660;5.824;2023-04-24T19:30:48;10.3;;;3.9;;
60718;SDS011;46567;51.660;5.824;2023-04-24T19:35:48;9.8;;;3.6;;
60718;SDS011;46567;51.660;5.824;2023-04-24T19:40:48;12.0;;;3.4;;
60718;SDS011;46567;51.660;5.824;2023-04-24T19:45:48;10.2;;;3.7;;
60718;SDS011;46567;51.660;5.824;2023-04-24T19:50:48;7.7;;;3.4;;
60718;SDS011;46567;51.660;5.824;2023-04-24T19:55:48;10.8;;;3.3;;
60718;SDS011;46567;51.660;5.824;2023-04-24T20:00:48;11.4;;;4.0;;
60718;SDS011;46567;51.660;5.824;2023-04-24T20:05:48;8.6;;;4.0;;
60718;SDS011;46567;51.660;5.824;2023-04-24T20:10:48;10.1;;;4.4;;
60718;SDS011;46567;51.660;5.824;2023-04-24T20:15:48;12.3;;;4.8;;
60718;SDS011;46567;51.660;5.824;2023-04-24T20:20:48;11.6;;;4.8;;
60718;SDS011;46567;51.660;5.824;2023-04-24T20:25:48;9.7;;;3.7;;
60718;SDS011;46567;51.660;5.824;2023-04-24T20:30:48;11.2;;;3.8;;
60718;SDS011;46567;51.660;5.824;2023-04-24T20:35:48;10.4;;;4.0;;
60718;SDS011;46567;51.660;5.824;2023-04-24T20:40:48;14.5;;;5.3;;
60718;SDS011;46567;51.660;5.824;2023-04-24T20:45:48;11.8;;;4.5;;
60718;SDS011;46567;51.660;5.824;2023-04-24T20:50:48;11.0;;;4.4;;
60718;SDS011;46567;51.660;5.824;2023-04-24T20:55:48;15.4;;;5.3;;
60718;SDS011;46567;51.660;5.824;2023-04-24T21:00:48;11.4;;;5.5;;
60718;SDS011;46567;51.660;5.824;2023-04-24T21:05:48;14.0;;;5.2;;
60718;SDS011;46567;51.660;5.824;2023-04-24T21:10:48;14.0;;;7.0;;
60718;SDS011;46567;51.660;5.824;2023-04-24T21:15:48;16.4;;;6.5;;
60718;SDS011;46567;51.660;5.824;2023-04-24T21:20:48;12.4;;;5.7;;
60718;SDS011;46567;51.660;5.824;2023-04-24T21:25:48;16.7;;;5.5;;
60718;SDS011;46567;51.660;5.824;2023-04-24T21:30:48;14.9;;;5.1;;
60718;SDS011;46567;51.660;5.824;2023-04-24T21:35:48;11.2;;;4.2;;
60718;SDS011;46567;51.660;5.824;2023-04-24T21:40:48;12.0;;;4.2;;
60718;SDS011;46567;51.660;5.824;2023-04-24T21:45:48;12.4;;;4.1;;
60718;SDS011;46567;51.660;5.824;2023-04-24T21:50:48;12.8;;;3.8;;
60718;SDS011;46567;51.660;5.824;2023-04-24T21:55:48;15.1;;;5.4;;
60718;SDS011;46567;51.660;5.824;2023-04-24T22:00:48;12.8;;;4.9;;
60718;SDS011;46567;51.660;5.824;2023-04-24T22:05:48;12.6;;;5.1;;
60718;SDS011;46567;51.660;5.824;2023-04-24T22:10:48;22.3;;;5.4;;
60718;SDS011;46567;51.660;5.824;2023-04-24T22:15:48;17.4;;;5.5;;
60718;SDS011;46567;51.660;5.824;2023-04-24T22:20:48;16.9;;;6.6;;
60718;SDS011;46567;51.660;5.824;2023-04-24T22:25:48;18.1;;;5.9;;
60718;SDS011;46567;51.660;5.824;2023-04-24T22:30:48;13.1;;;5.9;;
60718;SDS011;46567;51.660;5.824;2023-04-24T22:35:48;13.2;;;5.5;;
60718;SDS011;46567;51.660;5.824;2023-04-24T22:40:48;12.8;;;5.3;;
60718;SDS011;46567;51.660;5.824;2023-04-24T22:45:48;15.4;;;5.6;;
60718;SDS011;46567;51.660;5.824;2023-04-24T22:50:48;13.2;;;5.3;;
60718;SDS011;46567;51.660;5.824;2023-04-24T22:55:48;12.5;;;4.9;;
60718;SDS011;46567;51.660;5.824;2023-04-24T23:00:48;13.4;;;5.7;;
60718;SDS011;46567;51.660;5.824;2023-04-24T23:05:48;11.2;;;4.5;;
60718;SDS011;46567;51.660;5.824;2023-04-24T23:10:48;14.3;;;5.3;;
60718;SDS011;46567;51.660;5.824;2023-04-24T23:15:48;9.7;;;5.0;;
60718;SDS011;46567;51.660;5.824;2023-04-24T23:20:48;17.2;;;5.3;;
60718;SDS011;46567;51.660;5.824;2023-04-24T23:25:48;14.4;;;5.2;;
60718;SDS011;46567;51.660;5.824;2023-04-24T23:30:48;12.5;;;4.7;;
60718;SDS011;46567;51.660;5.824;2023-04-24T23:35:48;15.1;;;5.0;;
60718;SDS011;46567;51.660;5.824;2023-04-24T23:40:48;11.4;;;4.5;;
60718;SDS011;46567;51.660;5.824;2023-04-24T23:45:48;10.1;;;4.1;;
60718;SDS011;46567;51.660;5.824;2023-04-24T23:50:48;14.3;;;4.6;;
60718;SDS011;46567;51.660;5.824;2023-04-24T23:55:48;12.2;;;4.4;;
